Time;durP1;ratioP1;P1;durP2;ratioP2;P2;SDS_P1;SDS_P2;PMS_P1;PMS_P2;Temp;Humidity;BMP_temperature;BMP_pressure;BME280_temperature;BME280_humidity;BME280_pressure;Samples;Min_cycle;Max_cycle;Signal;HPM_P1;HPM_P2
2023/02/13 03:08:04;;;;;;;21.80;19.50;;;-0.80;99.90;;;;;;4957350;28;20447;-79
2023/02/13 03:13:35;;;;;;;19.83;18.00;;;-0.80;99.90;;;;;;4948365;29;20467;-79
2023/02/13 03:24:40;;;;;;;20.53;18.50;;;-0.90;99.90;;;;;;4940040;29;20438;-80
2023/02/13 03:27:11;;;;;;;20.23;18.30;;;-0.90;99.90;;;;;;4946766;28;20472;-80
2023/02/13 03:32:37;;;;;;;21.03;18.97;;;-0.90;99.90;;;;;;4941523;29;20505;-79
2023/02/13 03:38:13;;;;;;;20.47;18.60;;;-0.90;99.90;;;;;;4944195;29;20446;-79
2023/02/13 03:43:32;;;;;;;20.00;18.00;;;-1.00;99.90;;;;;;4948859;29;20461;-79
2023/02/13 03:46:01;;;;;;;22.27;20.17;;;-0.90;99.90;;;;;;4948692;29;20482;-80
2023/02/13 03:51:24;;;;;;;21.87;19.67;;;-0.90;99.90;;;;;;4950636;29;20960;-79
2023/02/13 03:53:55;;;;;;;21.83;19.90;;;-0.90;99.90;;;;;;4941449;28;20483;-84
2023/02/13 03:59:18;;;;;;;21.53;19.50;;;-0.90;99.90;;;;;;4932523;29;20483;-85
2023/02/13 04:02:01;;;;;;;22.23;20.13;;;-0.90;99.90;;;;;;4931203;29;20578;-85
2023/02/13 04:04:38;;;;;;;22.37;20.17;;;-0.90;99.90;;;;;;4935572;29;20435;-85
2023/02/13 04:07:09;;;;;;;21.80;19.70;;;-1.00;99.90;;;;;;4934064;29;20447;-85
2023/02/13 04:09:39;;;;;;;24.20;21.80;;;-1.00;99.90;;;;;;4944059;29;20502;-85
2023/02/13 04:12:13;;;;;;;23.27;20.97;;;-0.90;99.90;;;;;;4945262;28;20463;-85
2023/02/13 04:14:45;;;;;;;22.97;20.60;;;-0.90;99.90;;;;;;4952821;28;20450;-86
2023/02/13 04:17:17;;;;;;;21.33;19.33;;;-1.00;99.90;;;;;;4946968;29;20460;-89
2023/02/13 04:19:44;;;;;;;23.00;20.67;;;-1.00;99.90;;;;;;4949070;28;20451;-86
2023/02/13 04:22:12;;;;;;;21.70;19.60;;;-1.00;99.90;;;;;;4948536;28;20486;-86
2023/02/13 04:24:39;;;;;;;22.13;19.93;;;-1.00;99.90;;;;;;4946956;29;20501;-86
2023/02/13 04:27:06;;;;;;;21.77;19.77;;;-1.00;99.90;;;;;;4943798;28;20490;-85
2023/02/13 04:29:33;;;;;;;21.47;19.47;;;-1.00;99.90;;;;;;4943323;29;20965;-85
2023/02/13 04:32:00;;;;;;;22.23;20.17;;;-1.00;99.90;;;;;;4943590;28;20467;-85
2023/02/13 04:34:27;;;;;;;21.17;19.27;;;-1.10;99.90;;;;;;4949850;29;20483;-80
2023/02/13 04:36:53;;;;;;;21.03;19.07;;;-1.10;99.90;;;;;;4950858;29;20458;-80
2023/02/13 04:39:21;;;;;;;21.27;19.27;;;-1.20;99.90;;;;;;4950098;28;20561;-79
2023/02/13 04:41:48;;;;;;;21.17;19.17;;;-1.20;99.90;;;;;;4949238;29;21007;-80
2023/02/13 04:44:15;;;;;;;21.07;19.00;;;-1.20;99.90;;;;;;4950422;28;20451;-80
2023/02/13 04:46:42;;;;;;;21.73;19.73;;;-1.30;99.90;;;;;;4950872;29;20538;-80
2023/02/13 04:49:10;;;;;;;21.37;19.33;;;-1.30;99.90;;;;;;4947987;28;20452;-80
2023/02/13 04:51:37;;;;;;;22.30;20.30;;;-1.30;99.90;;;;;;4952400;28;20466;-79
2023/02/13 04:54:04;;;;;;;21.17;19.13;;;-1.30;99.90;;;;;;4953186;28;20505;-80
2023/02/13 04:56:32;;;;;;;22.50;20.40;;;-1.40;99.90;;;;;;4944799;29;20487;-80
2023/02/13 04:58:59;;;;;;;21.10;19.20;;;-1.40;99.90;;;;;;4952049;29;20462;-80
2023/02/13 05:01:26;;;;;;;22.87;20.80;;;-1.40;99.90;;;;;;4945894;28;20546;-80
2023/02/13 05:03:52;;;;;;;22.23;20.17;;;-1.40;99.90;;;;;;4954314;28;20454;-80
2023/02/13 05:06:19;;;;;;;21.63;19.53;;;-1.50;99.90;;;;;;4947195;28;20967;-80
2023/02/13 05:08:46;;;;;;;21.50;19.37;;;-1.40;99.90;;;;;;4949654;28;20471;-80
2023/02/13 05:11:13;;;;;;;23.00;20.77;;;-1.40;99.90;;;;;;4947751;29;20459;-79
2023/02/13 05:13:41;;;;;;;23.33;21.03;;;-1.40;99.90;;;;;;4949834;29;21003;-80
2023/02/13 05:16:08;;;;;;;22.20;20.10;;;-1.40;99.90;;;;;;4950178;29;20440;-80
2023/02/13 05:18:35;;;;;;;22.00;19.97;;;-1.40;99.90;;;;;;4951718;28;20463;-80
2023/02/13 05:23:46;;;;;;;22.53;20.33;;;-1.30;99.90;;;;;;4941332;29;20450;-80
2023/02/13 05:26:12;;;;;;;22.50;20.30;;;-1.40;99.90;;;;;;4950849;28;20477;-80
2023/02/13 05:31:25;;;;;;;22.80;20.60;;;-1.30;99.90;;;;;;4939977;29;20465;-80
2023/02/13 05:33:52;;;;;;;22.90;20.70;;;-1.30;99.90;;;;;;4946813;28;20475;-81
2023/02/13 05:36:18;;;;;;;22.97;20.53;;;-1.30;99.90;;;;;;4950595;29;20471;-80
2023/02/13 05:38:45;;;;;;;23.30;20.80;;;-1.30;99.90;;;;;;4949137;29;20864;-80
2023/02/13 05:41:13;;;;;;;22.90;20.57;;;-1.30;99.90;;;;;;4949562;29;20468;-80
2023/02/13 05:43:41;;;;;;;22.33;20.10;;;-1.30;99.90;;;;;;4953946;28;21004;-81
2023/02/13 05:46:09;;;;;;;23.10;20.73;;;-1.30;99.90;;;;;;4954204;29;20490;-80
2023/02/13 05:48:36;;;;;;;26.57;23.67;;;-1.30;99.90;;;;;;4948674;29;20513;-80
2023/02/13 05:51:04;;;;;;;25.37;22.57;;;-1.30;99.90;;;;;;4953545;28;21045;-80
2023/02/13 05:53:34;;;;;;;25.67;22.93;;;-1.40;99.90;;;;;;4953996;29;20899;-80
2023/02/13 05:56:01;;;;;;;24.80;22.20;;;-1.30;99.90;;;;;;4957109;28;20444;-81
2023/02/13 05:58:28;;;;;;;24.60;22.20;;;-1.40;99.90;;;;;;4953492;29;20454;-80
2023/02/13 06:00:58;;;;;;;24.73;22.23;;;-1.40;99.90;;;;;;4951124;28;20470;-81
2023/02/13 06:03:25;;;;;;;25.40;22.80;;;-1.40;99.90;;;;;;4953773;29;20442;-80
2023/02/13 06:05:52;;;;;;;24.60;22.00;;;-1.40;99.90;;;;;;4952296;29;20471;-80
2023/02/13 06:08:19;;;;;;;24.03;21.47;;;-1.40;99.90;;;;;;4945420;29;20486;-80
2023/02/13 06:10:46;;;;;;;24.70;21.87;;;-1.40;99.90;;;;;;4953492;28;20500;-80
2023/02/13 06:13:13;;;;;;;24.33;21.87;;;-1.40;99.90;;;;;;4947474;28;20475;-80
2023/02/13 06:15:40;;;;;;;25.17;22.63;;;-1.30;99.90;;;;;;4950443;28;20447;-80
2023/02/13 06:18:09;;;;;;;24.37;21.97;;;-1.30;99.90;;;;;;4951770;29;20459;-80
2023/02/13 06:20:36;;;;;;;23.33;21.07;;;-1.30;99.90;;;;;;4950503;29;20839;-80
2023/02/13 06:23:03;;;;;;;23.47;21.07;;;-1.30;99.90;;;;;;4950939;29;20439;-80
2023/02/13 06:25:30;;;;;;;21.80;19.60;;;-1.30;99.90;;;;;;4951163;29;20460;-81
2023/02/13 06:27:56;;;;;;;23.83;21.53;;;-1.30;99.90;;;;;;4953339;29;20443;-80
2023/02/13 06:30:23;;;;;;;25.83;23.23;;;-1.30;99.90;;;;;;4948688;28;20468;-81
2023/02/13 06:32:50;;;;;;;23.00;20.70;;;-1.20;99.90;;;;;;4947909;28;21015;-80
2023/02/13 06:35:18;;;;;;;24.30;21.83;;;-1.20;99.90;;;;;;4954234;29;20440;-81
2023/02/13 06:37:45;;;;;;;25.03;22.40;;;-1.20;99.90;;;;;;4944809;29;20444;-81
2023/02/13 06:40:14;;;;;;;27.20;24.30;;;-1.20;99.90;;;;;;4947049;29;20483;-81
2023/02/13 06:42:42;;;;;;;27.97;23.87;;;-1.20;99.90;;;;;;4948101;28;21050;-80
2023/02/13 06:45:09;;;;;;;25.03;22.43;;;-1.30;99.90;;;;;;4952621;29;20475;-80
2023/02/13 06:47:40;;;;;;;25.43;22.83;;;-1.30;99.90;;;;;;4951692;29;20514;-81
2023/02/13 06:50:07;;;;;;;25.53;22.83;;;-1.30;99.90;;;;;;4952677;29;20494;-81
2023/02/13 06:52:36;;;;;;;24.47;21.87;;;-1.30;99.90;;;;;;4945078;29;20475;-86
2023/02/13 06:55:04;;;;;;;23.60;21.30;;;-1.40;99.90;;;;;;4952174;28;20486;-81
2023/02/13 06:57:32;;;;;;;23.70;21.20;;;-1.40;99.90;;;;;;4934403;29;20489;-82
2023/02/13 06:59:58;;;;;;;24.10;21.73;;;-1.30;99.90;;;;;;4947638;28;20546;-82
2023/02/13 07:02:25;;;;;;;25.43;22.93;;;-1.30;99.90;;;;;;4953774;28;20797;-82
2023/02/13 07:04:52;;;;;;;23.70;21.20;;;-1.30;99.90;;;;;;4953021;28;20448;-81
2023/02/13 07:07:19;;;;;;;23.40;21.20;;;-1.20;99.90;;;;;;4954129;29;20455;-82
2023/02/13 07:09:47;;;;;;;24.20;21.80;;;-1.20;99.90;;;;;;4951040;28;20461;-81
2023/02/13 07:12:14;;;;;;;23.77;21.57;;;-1.20;99.90;;;;;;4953999;29;20532;-82
2023/02/13 07:14:41;;;;;;;25.03;22.47;;;-1.10;99.90;;;;;;4951076;29;20533;-82
2023/02/13 07:17:09;;;;;;;24.07;21.60;;;-1.10;99.90;;;;;;4949411;28;20447;-82
2023/02/13 07:19:36;;;;;;;26.10;22.67;;;-0.90;99.90;;;;;;4954995;28;20526;-82
2023/02/13 07:22:03;;;;;;;22.67;20.63;;;-0.80;99.90;;;;;;4950077;28;20467;-81
2023/02/13 07:24:32;;;;;;;23.17;20.83;;;-0.80;99.90;;;;;;4953255;28;20458;-82
2023/02/13 07:27:00;;;;;;;23.80;21.60;;;-0.60;99.90;;;;;;4951855;29;20859;-82
2023/02/13 07:29:27;;;;;;;24.67;22.03;;;-0.50;99.90;;;;;;4954102;29;20479;-82
2023/02/13 07:31:54;;;;;;;24.43;22.13;;;-0.40;99.90;;;;;;4957719;28;20580;-82
2023/02/13 07:34:21;;;;;;;23.77;21.60;;;-0.40;99.90;;;;;;4954531;29;20484;-81
2023/02/13 07:36:48;;;;;;;22.90;20.80;;;-0.30;99.90;;;;;;4953161;28;20444;-82
2023/02/13 07:39:15;;;;;;;23.57;21.37;;;-0.20;99.90;;;;;;4953508;29;20448;-82
2023/02/13 07:41:42;;;;;;;22.37;20.27;;;-0.10;99.90;;;;;;4953313;28;20464;-82
2023/02/13 07:44:10;;;;;;;24.37;21.87;;;0.00;99.90;;;;;;4947778;29;20435;-82
2023/02/13 07:46:37;;;;;;;23.67;21.37;;;0.20;99.90;;;;;;4956581;28;20478;-82
2023/02/13 07:49:04;;;;;;;23.90;21.70;;;0.50;99.90;;;;;;4951994;28;20441;-82
2023/02/13 07:51:31;;;;;;;23.77;21.47;;;0.80;99.90;;;;;;4953571;28;20468;-83
2023/02/13 07:53:57;;;;;;;22.87;20.73;;;1.00;99.90;;;;;;4951251;29;20827;-83
2023/02/13 07:56:24;;;;;;;23.57;21.40;;;1.40;99.90;;;;;;4952844;29;20523;-83
2023/02/13 07:58:51;;;;;;;22.30;20.20;;;1.60;99.90;;;;;;4951047;29;20820;-83
2023/02/13 08:01:19;;;;;;;22.03;20.10;;;1.80;99.90;;;;;;4945979;28;20481;-83
2023/02/13 08:03:49;;;;;;;21.47;19.60;;;2.20;99.90;;;;;;4954600;28;20935;-83
2023/02/13 08:06:17;;;;;;;21.80;19.90;;;2.30;99.90;;;;;;4945118;29;20725;-83
2023/02/13 08:08:44;;;;;;;21.13;19.17;;;2.50;99.90;;;;;;4951320;28;20485;-83
2023/02/13 08:14:07;;;;;;;23.73;21.47;;;2.50;99.90;;;;;;4947557;29;20226;-83
2023/02/13 08:16:35;;;;;;;22.37;20.37;;;2.80;99.90;;;;;;4952177;29;20238;-81
2023/02/13 08:19:01;;;;;;;23.03;20.93;;;3.00;99.90;;;;;;4950099;29;20195;-84
2023/02/13 08:21:28;;;;;;;21.50;19.70;;;3.20;99.90;;;;;;4948603;28;20227;-81
2023/02/13 08:23:55;;;;;;;20.90;19.10;;;3.60;99.90;;;;;;4949995;29;20263;-80
2023/02/13 08:26:22;;;;;;;24.67;22.37;;;3.80;99.90;;;;;;4951856;29;20269;-84
2023/02/13 08:28:49;;;;;;;24.17;22.07;;;4.20;99.90;;;;;;4949770;29;20199;-81
2023/02/13 08:31:15;;;;;;;21.97;20.17;;;4.20;99.90;;;;;;4945688;28;20247;-81
2023/02/13 08:33:44;;;;;;;22.03;20.23;;;4.70;99.90;;;;;;4953324;28;20214;-81
2023/02/13 08:36:11;;;;;;;20.57;18.87;;;4.60;99.90;;;;;;4949896;28;20251;-83
2023/02/13 08:38:38;;;;;;;21.03;19.33;;;5.10;99.90;;;;;;4949927;29;20215;-83
2023/02/13 08:41:05;;;;;;;21.00;19.20;;;5.60;99.90;;;;;;4949909;29;20696;-84
2023/02/13 08:43:32;;;;;;;21.00;19.20;;;5.80;99.90;;;;;;4950137;28;20275;-84
2023/02/13 08:45:59;;;;;;;20.30;18.63;;;6.00;99.90;;;;;;4941717;29;20199;-86
2023/02/13 08:48:26;;;;;;;21.13;19.43;;;6.00;99.90;;;;;;4942462;29;20206;-86
2023/02/13 08:50:54;;;;;;;20.07;18.37;;;6.10;99.90;;;;;;4934233;29;20232;-86
2023/02/13 08:53:21;;;;;;;20.60;18.90;;;6.00;99.90;;;;;;4952103;29;20201;-83
2023/02/13 08:55:55;;;;;;;20.60;18.90;;;6.00;99.90;;;;;;4951624;28;20225;-82
2023/02/13 08:58:22;;;;;;;21.27;19.53;;;6.20;99.90;;;;;;4940880;29;20273;-80
2023/02/13 09:00:49;;;;;;;20.67;18.87;;;6.30;99.90;;;;;;4956605;28;20224;-82
2023/02/13 09:03:16;;;;;;;21.50;19.70;;;6.40;99.90;;;;;;4956371;28;20209;-81
2023/02/13 09:05:43;;;;;;;19.37;17.77;;;6.40;99.90;;;;;;4960635;28;20205;-79
2023/02/13 09:08:12;;;;;;;20.47;18.63;;;6.70;99.90;;;;;;4963202;28;20437;-85
2023/02/13 09:10:40;;;;;;;20.60;18.80;;;6.80;99.90;;;;;;4970215;28;20182;-80
2023/02/13 09:13:07;;;;;;;20.80;18.97;;;6.80;99.90;;;;;;4963243;29;20193;-82
2023/02/13 09:15:34;;;;;;;20.27;18.63;;;6.70;99.90;;;;;;4968329;28;20233;-80
2023/02/13 09:18:01;;;;;;;17.27;15.80;;;7.00;99.90;;;;;;4965495;28;20215;-80
2023/02/13 09:20:27;;;;;;;17.40;15.83;;;7.00;99.90;;;;;;4968279;28;20202;-80
2023/02/13 09:22:56;;;;;;;20.07;18.47;;;7.20;99.90;;;;;;4968180;28;20214;-80
2023/02/13 09:25:24;;;;;;;17.33;15.87;;;7.20;99.90;;;;;;4968377;28;20209;-81
2023/02/13 09:27:51;;;;;;;20.60;18.90;;;7.30;99.90;;;;;;4969359;28;20199;-80
2023/02/13 09:30:22;;;;;;;19.97;18.37;;;7.30;99.90;;;;;;4966946;29;20212;-81
2023/02/13 09:32:49;;;;;;;19.83;18.27;;;7.40;99.90;;;;;;4968981;28;20202;-81
2023/02/13 09:35:16;;;;;;;19.90;18.23;;;7.50;99.90;;;;;;4965506;29;20223;-80
2023/02/13 09:37:44;;;;;;;20.00;18.33;;;7.50;99.90;;;;;;4964109;28;20227;-82
2023/02/13 09:40:22;;;;;;;20.07;18.33;;;7.50;99.90;;;;;;4957615;29;20572;-79
2023/02/13 09:42:52;;;;;;;19.80;18.20;;;7.50;99.90;;;;;;4965000;28;20211;-79
2023/02/13 09:45:21;;;;;;;19.73;18.07;;;7.60;99.90;;;;;;4956679;28;20195;-80
2023/02/13 09:47:50;;;;;;;19.60;18.00;;;7.60;99.90;;;;;;4958172;28;20202;-82
2023/02/13 09:50:21;;;;;;;20.77;18.97;;;7.60;99.90;;;;;;4949098;28;20235;-81
2023/02/13 09:52:51;;;;;;;19.47;17.83;;;7.40;99.90;;;;;;4957859;28;20213;-81
2023/02/13 09:55:20;;;;;;;19.47;17.87;;;7.40;99.90;;;;;;4947658;28;20722;-80
2023/02/13 09:57:57;;;;;;;19.10;17.43;;;7.40;99.90;;;;;;4954033;28;20199;-81
2023/02/13 10:00:30;;;;;;;19.50;17.80;;;7.50;99.90;;;;;;4948653;29;20265;-81
2023/02/13 10:03:20;;;;;;;20.23;18.43;;;7.40;99.90;;;;;;4950004;29;20262;-81
2023/02/13 10:05:57;;;;;;;19.50;17.70;;;7.10;99.90;;;;;;4939808;29;20203;-80
2023/02/13 10:08:39;;;;;;;18.70;17.10;;;7.00;99.90;;;;;;4946111;29;20191;-80
2023/02/13 10:11:16;;;;;;;18.17;16.77;;;6.80;99.90;;;;;;4952662;28;20330;-80
2023/02/13 10:14:01;;;;;;;17.97;16.37;;;6.80;99.90;;;;;;4949376;29;20248;-80
2023/02/13 10:16:35;;;;;;;18.97;17.27;;;6.50;99.90;;;;;;4940176;29;20230;-80
2023/02/13 10:19:11;;;;;;;17.97;16.27;;;6.30;99.90;;;;;;4946681;28;20398;-81
2023/02/13 10:21:47;;;;;;;17.73;16.13;;;6.30;99.90;;;;;;4944822;28;20261;-80
2023/02/13 10:24:26;;;;;;;18.47;16.80;;;6.30;99.90;;;;;;4949097;29;20193;-80
2023/02/13 10:26:56;;;;;;;17.73;16.23;;;6.20;99.90;;;;;;4960503;28;20204;-80
2023/02/13 10:32:18;;;;;;;19.47;17.77;;;6.40;99.90;;;;;;4960478;29;20225;-81
2023/02/13 10:34:47;;;;;;;17.83;16.33;;;6.20;99.90;;;;;;4961770;28;20274;-80
2023/02/13 10:37:16;;;;;;;18.30;16.70;;;6.10;99.90;;;;;;4958887;28;20558;-80
2023/02/13 10:39:46;;;;;;;19.33;17.53;;;6.10;99.90;;;;;;4944586;29;20248;-81
2023/02/13 10:42:22;;;;;;;17.53;16.07;;;6.10;99.90;;;;;;4950615;29;20295;-80
2023/02/13 10:45:11;;;;;;;18.00;16.40;;;6.10;99.90;;;;;;4951054;29;20199;-80
2023/02/13 10:47:55;;;;;;;17.87;16.00;;;6.10;99.90;;;;;;4946842;29;20205;-81
2023/02/13 10:50:29;;;;;;;18.20;16.60;;;6.10;99.90;;;;;;4955230;29;20300;-80
2023/02/13 10:53:09;;;;;;;17.90;16.20;;;6.10;99.90;;;;;;4949457;29;20253;-80
2023/02/13 10:56:04;;;;;;;18.00;16.37;;;6.10;99.90;;;;;;4944260;29;20229;-81
2023/02/13 10:58:43;;;;;;;18.60;16.77;;;6.10;99.90;;;;;;4931565;29;20217;-81
2023/02/13 11:01:18;;;;;;;17.63;16.10;;;6.10;99.90;;;;;;4945181;28;20229;-81
2023/02/13 11:03:46;;;;;;;17.10;15.50;;;6.20;99.90;;;;;;4949687;28;20258;-81
2023/02/13 11:06:16;;;;;;;17.10;15.70;;;6.30;99.90;;;;;;4949318;29;20637;-81
2023/02/13 11:08:46;;;;;;;18.97;17.27;;;6.30;99.90;;;;;;4953194;28;20259;-81
2023/02/13 11:11:33;;;;;;;18.87;17.13;;;6.40;99.90;;;;;;4948472;28;20343;-81
2023/02/13 11:14:09;;;;;;;17.10;15.47;;;6.30;99.90;;;;;;4946107;29;20453;-81
2023/02/13 11:16:48;;;;;;;16.83;15.37;;;6.30;99.90;;;;;;4944753;29;20475;-81
2023/02/13 11:19:21;;;;;;;18.43;16.80;;;6.30;99.90;;;;;;4950111;29;20205;-81
2023/02/13 11:21:57;;;;;;;17.77;16.17;;;6.20;99.90;;;;;;4944153;29;20714;-81
2023/02/13 11:24:26;;;;;;;18.80;17.20;;;6.30;99.90;;;;;;4941900;28;20440;-81
2023/02/13 11:26:58;;;;;;;17.27;15.87;;;6.30;99.90;;;;;;4950902;28;20209;-81
2023/02/13 11:29:28;;;;;;;17.87;16.37;;;6.40;99.90;;;;;;4944942;28;20674;-80
2023/02/13 11:32:17;;;;;;;18.33;16.70;;;6.50;99.90;;;;;;4947070;28;20220;-80
2023/02/13 11:34:44;;;;;;;18.17;16.47;;;6.50;99.90;;;;;;4941498;29;20753;-81
2023/02/13 11:37:26;;;;;;;17.80;16.40;;;6.50;99.90;;;;;;4947082;29;20217;-81
2023/02/13 11:39:55;;;;;;;18.87;17.20;;;6.60;99.90;;;;;;4942128;29;20232;-81
2023/02/13 11:42:28;;;;;;;17.87;16.37;;;6.60;99.90;;;;;;4948589;29;20229;-81
2023/02/13 11:44:58;;;;;;;16.80;15.33;;;6.70;99.90;;;;;;4952769;29;20202;-81
2023/02/13 11:47:35;;;;;;;17.17;15.57;;;6.80;99.90;;;;;;4957392;29;20632;-82
2023/02/13 11:50:02;;;;;;;17.67;16.17;;;6.80;99.90;;;;;;4952317;29;20204;-81
2023/02/13 11:52:32;;;;;;;17.73;16.10;;;6.90;99.90;;;;;;4937973;29;20238;-80
2023/02/13 11:55:01;;;;;;;16.80;15.33;;;6.90;99.90;;;;;;4952220;28;20292;-79
2023/02/13 11:57:30;;;;;;;17.10;15.70;;;7.00;99.90;;;;;;4949860;28;20219;-80
2023/02/13 11:59:59;;;;;;;17.17;15.77;;;7.00;99.90;;;;;;4945237;29;20262;-81
2023/02/13 12:02:27;;;;;;;16.97;15.47;;;7.10;99.90;;;;;;4952507;28;20238;-80
2023/02/13 12:05:16;;;;;;;16.93;15.43;;;7.10;99.90;;;;;;4952572;29;20206;-81
2023/02/13 12:07:44;;;;;;;18.37;16.63;;;7.20;99.90;;;;;;4947106;29;20245;-82
2023/02/13 12:10:19;;;;;;;23.03;16.23;;;7.20;99.90;;;;;;4956783;28;20194;-82
2023/02/13 12:12:53;;;;;;;17.17;15.57;;;7.30;99.90;;;;;;4952257;28;20234;-80
2023/02/13 12:15:23;;;;;;;16.90;15.43;;;7.40;99.90;;;;;;4950686;29;20225;-80
2023/02/13 12:18:03;;;;;;;16.10;14.80;;;7.40;99.90;;;;;;4952390;28;20682;-80
2023/02/13 12:20:40;;;;;;;15.40;14.20;;;7.40;99.90;;;;;;4954435;28;20504;-80
2023/02/13 12:23:19;;;;;;;16.40;15.10;;;7.40;99.90;;;;;;4950517;29;20253;-80
2023/02/13 12:26:05;;;;;;;15.97;14.57;;;7.50;99.90;;;;;;4944096;29;20558;-80
2023/02/13 12:28:49;;;;;;;16.17;14.77;;;7.50;99.90;;;;;;4951836;29;20205;-81
2023/02/13 12:31:39;;;;;;;17.63;16.13;;;7.60;99.90;;;;;;4949093;29;20717;-80
2023/02/13 12:34:27;;;;;;;17.10;15.70;;;7.60;99.90;;;;;;4950573;29;20202;-81
2023/02/13 12:37:08;;;;;;;18.43;16.80;;;7.70;99.90;;;;;;4948719;29;20230;-81
2023/02/13 12:39:39;;;;;;;16.67;15.37;;;7.70;99.90;;;;;;4948026;29;20217;-82
2023/02/13 12:42:25;;;;;;;16.67;15.37;;;7.70;99.90;;;;;;4953265;28;20639;-82
2023/02/13 12:45:05;;;;;;;17.60;16.13;;;7.80;99.90;;;;;;4946843;29;20209;-82
2023/02/13 12:47:39;;;;;;;18.43;16.83;;;7.90;99.90;;;;;;4934876;29;20211;-82
2023/02/13 12:50:30;;;;;;;17.53;16.13;;;7.90;99.90;;;;;;4950402;28;20201;-81
2023/02/13 12:53:13;;;;;;;18.90;17.30;;;7.90;99.90;;;;;;4935580;29;20254;-80
2023/02/13 12:55:54;;;;;;;17.43;15.90;;;7.90;99.90;;;;;;4943716;29;20223;-84
2023/02/13 12:58:49;;;;;;;17.67;16.07;;;7.90;99.90;;;;;;4944588;29;20199;-81
2023/02/13 13:01:25;;;;;;;17.13;15.73;;;7.90;99.90;;;;;;4942715;29;20227;-82
2023/02/13 13:04:06;;;;;;;15.80;14.50;;;7.90;99.90;;;;;;4946474;29;20902;-83
2023/02/13 13:06:43;;;;;;;16.17;14.87;;;8.00;99.90;;;;;;4937891;29;20264;-81
2023/02/13 13:09:49;;;;;;;16.93;15.47;;;7.90;99.90;;;;;;4953339;29;20194;-81
2023/02/13 13:12:39;;;;;;;16.10;14.80;;;7.90;99.90;;;;;;4944805;28;20286;-79
2023/02/13 13:15:15;;;;;;;17.43;15.97;;;8.00;99.90;;;;;;4940168;29;20650;-81
2023/02/13 13:17:57;;;;;;;17.47;16.00;;;8.00;99.90;;;;;;4941197;28;20202;-83
2023/02/13 13:20:45;;;;;;;16.60;15.20;;;8.00;99.90;;;;;;4940768;29;20571;-81
2023/02/13 13:23:18;;;;;;;17.80;16.23;;;8.10;99.90;;;;;;4948892;29;20202;-81
2023/02/13 13:25:53;;;;;;;17.93;16.27;;;8.20;99.90;;;;;;4941607;29;20583;-81
2023/02/13 13:28:22;;;;;;;15.93;14.67;;;8.20;99.90;;;;;;4943010;29;20206;-80
2023/02/13 13:30:49;;;;;;;16.10;14.83;;;8.20;99.90;;;;;;4944531;29;20223;-81
2023/02/13 13:33:18;;;;;;;16.10;14.80;;;8.30;99.90;;;;;;4948410;29;20211;-83
2023/02/13 13:35:53;;;;;;;16.37;14.93;;;8.30;99.90;;;;;;4951445;29;20218;-85
2023/02/13 13:38:29;;;;;;;16.77;15.37;;;8.30;99.90;;;;;;4949060;28;20667;-83
2023/02/13 13:41:01;;;;;;;16.07;14.70;;;8.20;99.90;;;;;;4945785;29;20215;-84
2023/02/13 13:43:35;;;;;;;16.43;15.07;;;8.30;99.90;;;;;;4945303;29;20203;-81
2023/02/13 13:46:12;;;;;;;15.73;14.53;;;8.20;99.90;;;;;;4951112;29;20202;-81
2023/02/13 13:48:51;;;;;;;16.37;15.07;;;8.20;99.90;;;;;;4938694;29;20256;-81
2023/02/13 13:51:19;;;;;;;15.50;14.30;;;8.30;99.90;;;;;;4939421;28;20218;-82
2023/02/13 13:54:20;;;;;;;18.00;16.50;;;8.30;99.90;;;;;;4943830;28;20253;-82
2023/02/13 13:57:10;;;;;;;15.80;14.50;;;8.30;99.90;;;;;;4940100;29;20227;-84
2023/02/13 14:00:16;;;;;;;15.67;14.27;;;8.30;99.90;;;;;;4944342;29;20206;-83
2023/02/13 14:02:50;;;;;;;16.27;14.87;;;8.40;99.90;;;;;;4940113;29;20305;-83
2023/02/13 14:05:24;;;;;;;15.50;14.23;;;8.30;99.90;;;;;;4948111;28;20193;-82
2023/02/13 14:07:53;;;;;;;17.33;15.93;;;8.30;99.90;;;;;;4947444;28;20201;-85
2023/02/13 14:11:07;;;;;;;16.70;15.30;;;8.40;99.90;;;;;;4941415;29;20672;-81
2023/02/13 14:13:36;;;;;;;16.57;15.17;;;8.30;99.90;;;;;;4947496;29;20678;-78
2023/02/13 14:16:05;;;;;;;17.20;15.70;;;8.40;99.90;;;;;;4943681;28;20651;-78
2023/02/13 14:18:34;;;;;;;15.60;14.40;;;8.40;99.90;;;;;;4946101;28;20277;-79
2023/02/13 14:21:03;;;;;;;16.23;14.93;;;8.50;99.90;;;;;;4943809;29;20258;-79
2023/02/13 14:23:48;;;;;;;15.03;13.87;;;8.50;99.90;;;;;;4943143;29;20258;-79
2023/02/13 14:26:39;;;;;;;14.80;13.70;;;8.50;99.90;;;;;;4945656;29;20199;-80
2023/02/13 14:29:27;;;;;;;15.70;14.50;;;8.60;99.90;;;;;;4942922;29;20203;-81
2023/02/13 14:32:11;;;;;;;15.97;14.63;;;8.50;99.90;;;;;;4938467;29;20231;-79
2023/02/13 14:34:40;;;;;;;17.43;15.83;;;8.50;99.90;;;;;;4943466;29;20202;-80
2023/02/13 14:37:34;;;;;;;16.53;15.23;;;8.50;99.90;;;;;;4948310;29;20218;-80
2023/02/13 14:40:32;;;;;;;16.70;15.30;;;8.50;99.90;;;;;;4945622;29;20210;-81
2023/02/13 14:43:07;;;;;;;17.20;15.70;;;8.40;99.90;;;;;;4949828;29;20635;-79
2023/02/13 14:45:48;;;;;;;16.30;15.00;;;8.40;99.90;;;;;;4933556;29;20210;-77
2023/02/13 14:48:15;;;;;;;15.30;14.10;;;8.40;99.90;;;;;;4945120;28;20229;-77
2023/02/13 14:50:50;;;;;;;17.10;15.70;;;8.50;99.90;;;;;;4943682;28;20284;-80
2023/02/13 14:53:21;;;;;;;16.67;15.37;;;8.50;99.90;;;;;;4940103;28;20246;-79
2023/02/13 14:55:55;;;;;;;15.47;14.23;;;8.40;99.90;;;;;;4941957;28;20222;-81
2023/02/13 14:58:25;;;;;;;15.77;14.47;;;8.40;99.90;;;;;;4943207;29;20550;-80
2023/02/13 15:00:57;;;;;;;15.63;14.20;;;8.40;99.90;;;;;;4944450;29;20227;-77
2023/02/13 15:03:28;;;;;;;17.00;15.40;;;8.40;99.90;;;;;;4947381;29;20207;-77
2023/02/13 15:06:01;;;;;;;16.47;15.07;;;8.30;99.90;;;;;;4938749;29;20675;-78
2023/02/13 15:08:34;;;;;;;18.03;16.50;;;8.40;99.90;;;;;;4939783;29;20262;-77
2023/02/13 15:11:01;;;;;;;16.83;15.53;;;8.40;99.90;;;;;;4946511;28;20227;-78
2023/02/13 15:13:34;;;;;;;17.27;15.87;;;8.30;99.90;;;;;;4935534;29;20210;-79
2023/02/13 15:16:05;;;;;;;16.30;14.90;;;8.30;99.90;;;;;;4951604;28;20297;-79
2023/02/13 15:18:41;;;;;;;17.07;15.30;;;8.30;99.90;;;;;;4940050;29;20206;-79
2023/02/13 15:21:14;;;;;;;16.87;15.40;;;8.30;99.90;;;;;;4951210;28;20229;-79
2023/02/13 15:23:41;;;;;;;16.97;15.37;;;8.20;99.90;;;;;;4951370;29;20261;-80
2023/02/13 15:26:27;;;;;;;17.63;15.40;;;8.20;99.90;;;;;;4942230;28;20275;-85
2023/02/13 15:29:02;;;;;;;17.47;15.87;;;8.10;99.90;;;;;;4937164;29;20208;-79
2023/02/13 15:31:37;;;;;;;17.03;15.47;;;8.10;99.90;;;;;;4939312;28;20385;-86
2023/02/13 15:34:03;;;;;;;17.40;15.90;;;8.00;99.90;;;;;;4951007;29;20223;-79
2023/02/13 15:36:40;;;;;;;18.80;16.97;;;8.00;99.90;;;;;;4945037;28;20233;-80
2023/02/13 15:39:17;;;;;;;16.90;15.50;;;7.90;99.90;;;;;;4950903;29;20202;-79
2023/02/13 15:41:46;;;;;;;18.60;15.63;;;7.90;99.90;;;;;;4947139;28;20277;-80
2023/02/13 15:44:18;;;;;;;16.43;15.10;;;7.80;99.90;;;;;;4953097;28;20199;-79
2023/02/13 15:46:50;;;;;;;16.53;15.13;;;7.80;99.90;;;;;;4957129;29;20257;-78
2023/02/13 15:49:18;;;;;;;16.57;15.17;;;7.70;99.90;;;;;;4954294;28;20218;-79
2023/02/13 15:55:40;;;;;;;16.93;15.33;;;7.60;99.90;;;;;;4943299;28;20209;-85
2023/02/13 15:58:13;;;;;;;16.60;15.10;;;7.50;99.90;;;;;;4962766;28;20201;-85
2023/02/13 16:00:45;;;;;;;16.63;15.20;;;7.40;99.90;;;;;;4956039;28;20216;-82
2023/02/13 16:20:01;;;;;;;16.90;15.30;;;6.80;99.90;;;;;;4944944;29;20213;-85
2023/02/13 16:22:34;;;;;;;16.33;14.83;;;6.60;99.90;;;;;;4922288;29;20270;-83
2023/02/13 16:25:17;;;;;;;17.03;15.40;;;6.40;99.90;;;;;;4913439;29;20210;-82
2023/02/13 16:27:46;;;;;;;16.47;15.07;;;6.30;99.90;;;;;;4921470;29;20245;-85
2023/02/13 16:30:25;;;;;;;16.90;15.30;;;6.10;99.90;;;;;;4913778;29;20212;-84
2023/02/13 16:43:39;;;;;;;15.57;14.17;;;5.50;99.90;;;;;;5038524;23;20345;-83
2023/02/13 16:46:31;;;;;;;16.33;14.93;;;5.40;99.90;;;;;;4943674;29;20598;-83
2023/02/13 16:49:19;;;;;;;17.53;15.90;;;5.30;99.90;;;;;;4932934;29;20478;-78
2023/02/13 16:51:51;;;;;;;16.73;15.27;;;5.20;99.90;;;;;;4929899;29;20230;-80
2023/02/13 16:54:29;;;;;;;17.13;15.63;;;5.10;99.90;;;;;;4946176;29;20310;-82
2023/02/13 16:57:00;;;;;;;16.87;15.40;;;5.00;99.90;;;;;;4945443;29;20235;-84
2023/02/13 16:59:41;;;;;;;17.53;15.93;;;4.90;99.90;;;;;;4937294;29;20463;-79
2023/02/13 17:02:14;;;;;;;18.00;16.30;;;4.80;99.90;;;;;;4954090;28;20295;-78
2023/02/13 17:04:43;;;;;;;17.63;16.03;;;4.70;99.90;;;;;;4943187;28;20212;-80
2023/02/13 17:07:21;;;;;;;18.00;16.20;;;4.60;99.90;;;;;;4936947;29;20456;-80
2023/02/13 17:09:56;;;;;;;17.87;16.27;;;4.50;99.90;;;;;;4949406;29;20202;-78
2023/02/13 17:12:26;;;;;;;18.37;16.57;;;4.40;99.90;;;;;;4945193;28;20230;-82
2023/02/13 17:14:53;;;;;;;18.60;16.90;;;4.30;99.90;;;;;;4930106;29;20200;-77